createdAt,value
2017-02-10T00:00:38.858Z,-2.37
2017-02-10T00:01:47.814Z,-2.4
2017-02-10T00:02:56.753Z,-2.32
2017-02-10T00:04:05.708Z,-2.4
2017-02-10T00:05:14.654Z,-2.4
2017-02-10T00:06:23.692Z,-2.32
2017-02-10T00:07:32.640Z,-2.37
2017-02-10T00:08:41.587Z,-2.27
2017-02-10T00:09:50.620Z,-2.3
2017-02-10T00:10:59.569Z,-2.29
2017-02-10T00:12:08.516Z,-2.29
2017-02-10T00:13:17.548Z,-2.21
2017-02-10T00:14:26.580Z,-2.24
2017-02-10T00:15:35.528Z,-2.23
2017-02-10T00:16:44.877Z,-2.12
2017-02-10T00:17:53.864Z,-2.24
2017-02-10T00:19:02.807Z,-2.23
2017-02-10T00:20:11.839Z,-2.29
2017-02-10T00:21:20.808Z,-2.34
2017-02-10T00:22:29.755Z,-2.37
2017-02-10T00:23:38.701Z,-2.39
2017-02-10T00:24:47.648Z,-2.39
2017-02-10T00:25:57.002Z,-2.34
2017-02-10T00:27:05.950Z,-2.39
2017-02-10T00:28:15.309Z,-2.4
2017-02-10T00:29:24.254Z,-2.39
2017-02-10T00:30:33.205Z,-2.37
2017-02-10T00:31:42.156Z,-2.34
2017-02-10T00:32:51.098Z,-2.37
2017-02-10T00:34:00.042Z,-2.37
2017-02-10T00:35:08.989Z,-2.39
2017-02-10T00:36:18.027Z,-2.43
2017-02-10T00:37:26.973Z,-2.4
2017-02-10T00:38:35.920Z,-2.37
2017-02-10T00:39:44.864Z,-2.29
2017-02-10T00:40:53.811Z,-2.35
2017-02-10T00:42:02.760Z,-2.39
2017-02-10T00:43:12.524Z,-2.46
2017-02-10T00:44:21.473Z,-2.45
2017-02-10T00:45:30.414Z,-2.48
2017-02-10T00:46:39.766Z,-2.52
2017-02-10T00:47:48.707Z,-2.46
2017-02-10T00:48:57.646Z,-2.4
2017-02-10T00:50:06.677Z,-2.37
2017-02-10T00:51:15.706Z,-2.39
2017-02-10T00:52:24.648Z,-2.45
2017-02-10T00:53:33.594Z,-2.48
2017-02-10T00:54:42.624Z,-2.53
2017-02-10T00:55:51.980Z,-2.53
2017-02-10T00:57:00.922Z,-2.45
2017-02-10T00:58:10.274Z,-2.48
2017-02-10T00:59:19.220Z,-2.48
2017-02-10T01:00:28.163Z,-2.48
2017-02-10T01:01:37.107Z,-2.52
2017-02-10T01:02:46.050Z,-2.5
2017-02-10T01:03:54.998Z,-2.64
2017-02-10T01:05:03.944Z,-2.53
2017-02-10T01:06:12.901Z,-2.6
2017-02-10T01:07:21.849Z,-2.55
2017-02-10T01:08:30.797Z,-2.6
2017-02-10T01:09:39.747Z,-2.55
2017-02-10T01:10:48.693Z,-2.66
2017-02-10T01:11:57.641Z,-2.63
2017-02-10T01:13:06.583Z,-2.61
2017-02-10T01:14:15.530Z,-2.61
2017-02-10T01:15:24.475Z,-2.64
2017-02-10T01:16:33.423Z,-2.64
2017-02-10T01:17:42.408Z,-2.64
2017-02-10T01:18:51.354Z,-2.61
2017-02-10T01:20:00.298Z,-2.55
2017-02-10T01:21:09.655Z,-2.58
2017-02-10T01:22:18.593Z,-2.58
2017-02-10T01:23:27.535Z,-2.56
2017-02-10T01:24:36.523Z,-2.63
2017-02-10T01:25:45.467Z,-2.64
2017-02-10T01:26:54.503Z,-2.61
2017-02-10T01:28:03.450Z,-2.67
2017-02-10T01:29:12.487Z,-2.66
2017-02-10T01:30:21.427Z,-2.66
2017-02-10T01:31:30.374Z,-2.66
2017-02-10T01:32:39.729Z,-2.81
2017-02-10T01:33:49.088Z,-2.77
2017-02-10T01:34:58.036Z,-2.78
2017-02-10T01:36:06.981Z,-2.78
2017-02-10T01:37:16.014Z,-2.64
2017-02-10T01:38:25.455Z,-2.68
2017-02-10T01:39:34.810Z,-2.7
2017-02-10T01:40:43.750Z,-2.71
2017-02-10T01:41:52.787Z,-2.66
2017-02-10T01:43:01.732Z,-2.67
2017-02-10T01:44:10.680Z,-2.67
2017-02-10T01:45:19.713Z,-2.67
2017-02-10T01:46:28.661Z,-2.66
2017-02-10T01:47:37.604Z,-2.68
2017-02-10T01:48:46.562Z,-2.63
2017-02-10T01:49:55.510Z,-2.55
2017-02-10T01:51:04.459Z,-2.55
2017-02-10T01:52:13.409Z,-2.64
2017-02-10T01:53:22.355Z,-2.6
2017-02-10T01:54:31.298Z,-2.58
2017-02-10T01:55:40.250Z,-2.63
2017-02-10T01:56:49.202Z,-2.66
2017-02-10T01:57:58.145Z,-2.66
2017-02-10T01:59:07.094Z,-2.61
2017-02-10T02:00:16.439Z,-2.66
2017-02-10T02:01:25.387Z,-2.63
2017-02-10T02:02:34.333Z,-2.61
2017-02-10T02:03:43.277Z,-2.61
2017-02-10T02:04:52.224Z,-2.6
2017-02-10T02:06:01.576Z,-2.46
2017-02-10T02:07:10.526Z,-2.52
2017-02-10T02:08:19.471Z,-2.6
2017-02-10T02:09:28.512Z,-2.55
2017-02-10T02:10:37.457Z,-2.66
2017-02-10T02:11:46.401Z,-2.61
2017-02-10T02:12:55.343Z,-2.61
2017-02-10T02:14:04.283Z,-2.66
2017-02-10T02:15:13.320Z,-2.63
2017-02-10T02:16:22.265Z,-2.61
2017-02-10T02:17:31.209Z,-2.56
2017-02-10T02:18:40.158Z,-2.58
2017-02-10T02:19:49.189Z,-2.58
2017-02-10T02:20:58.133Z,-2.6
2017-02-10T02:22:07.080Z,-2.55
2017-02-10T02:23:16.433Z,-2.61
2017-02-10T02:24:25.468Z,-2.63
2017-02-10T02:25:34.419Z,-2.66
2017-02-10T02:26:43.363Z,-2.66
2017-02-10T02:27:52.397Z,-2.77
2017-02-10T02:29:01.351Z,-2.7
2017-02-10T02:30:10.303Z,-2.77
2017-02-10T02:31:19.248Z,-2.85
2017-02-10T02:32:28.202Z,-2.74
2017-02-10T02:33:37.237Z,-2.78
2017-02-10T02:34:46.598Z,-2.85
2017-02-10T02:35:55.951Z,-2.85
2017-02-10T02:37:04.900Z,-2.94
2017-02-10T02:38:14.250Z,-2.96
2017-02-10T02:39:23.197Z,-2.94
2017-02-10T02:40:32.144Z,-2.97
2017-02-10T02:41:41.090Z,-2.99
2017-02-10T02:42:50.034Z,-2.84
2017-02-10T02:43:58.982Z,-2.84
2017-02-10T02:45:07.927Z,-2.86
2017-02-10T02:46:16.872Z,-2.88
2017-02-10T02:47:25.996Z,-2.84
2017-02-10T02:48:34.937Z,-2.79
2017-02-10T02:49:43.881Z,-2.79
2017-02-10T02:50:52.826Z,-2.84
2017-02-10T02:52:01.857Z,-2.86
2017-02-10T02:53:10.796Z,-2.73
2017-02-10T02:54:19.775Z,-2.73
2017-02-10T02:55:28.727Z,-2.85
2017-02-10T02:56:37.673Z,-2.85
2017-02-10T02:57:46.703Z,-2.92
2017-02-10T02:58:55.652Z,-2.89
2017-02-10T03:00:04.598Z,-2.73
2017-02-10T03:01:13.543Z,-2.89
2017-02-10T03:02:22.484Z,-2.88
2017-02-10T03:03:31.433Z,-2.85
2017-02-10T03:04:40.380Z,-2.82
2017-02-10T03:05:49.325Z,-2.78
2017-02-10T03:06:58.272Z,-2.88
2017-02-10T03:08:07.218Z,-2.84
2017-02-10T03:09:16.570Z,-3
2017-02-10T03:10:25.561Z,-2.99
2017-02-10T03:11:34.596Z,-3
2017-02-10T03:12:43.628Z,-3.02
2017-02-10T03:13:52.573Z,-3.03
2017-02-10T03:15:01.537Z,-2.99
2017-02-10T03:16:10.482Z,-2.97
2017-02-10T03:17:19.519Z,-2.99
2017-02-10T03:18:28.461Z,-2.92
2017-02-10T03:19:37.499Z,-2.88
2017-02-10T03:20:46.445Z,-2.97
2017-02-10T03:21:55.385Z,-2.88
2017-02-10T03:23:04.328Z,-2.92
2017-02-10T03:24:13.682Z,-3.02
2017-02-10T03:25:22.718Z,-3
2017-02-10T03:26:31.661Z,-3.06
2017-02-10T03:27:40.693Z,-3
2017-02-10T03:28:49.636Z,-2.97
2017-02-10T03:29:58.580Z,-2.89
2017-02-10T03:31:07.524Z,-2.97
2017-02-10T03:32:16.469Z,-3.06
2017-02-10T03:33:25.416Z,-3.06
2017-02-10T03:34:34.444Z,-3.06
2017-02-10T03:35:43.790Z,-3.14
2017-02-10T03:36:53.139Z,-3.02
2017-02-10T03:38:02.087Z,-3.1
2017-02-10T03:39:11.034Z,-3.1
2017-02-10T03:40:19.978Z,-3.07
2017-02-10T03:41:28.921Z,-3.12
2017-02-10T03:42:37.865Z,-3.05
2017-02-10T03:43:46.809Z,-3.1
2017-02-10T03:44:55.752Z,-2.97
2017-02-10T03:46:04.692Z,-3.1
2017-02-10T03:47:13.641Z,-3.05
2017-02-10T03:48:22.676Z,-3.1
2017-02-10T03:49:32.027Z,-3.07
2017-02-10T03:50:40.974Z,-3.12
2017-02-10T03:51:49.921Z,-3.24
2017-02-10T03:52:58.949Z,-3.27
2017-02-10T03:54:07.986Z,-3.31
2017-02-10T03:55:17.055Z,-3.38
2017-02-10T03:56:26.007Z,-3.38
2017-02-10T03:57:34.949Z,-3.39
2017-02-10T03:58:43.988Z,-3.35
2017-02-10T03:59:53.011Z,-3.39
2017-02-10T04:01:01.954Z,-3.36
2017-02-10T04:02:10.901Z,-3.31
2017-02-10T04:03:19.851Z,-3.24
2017-02-10T04:04:28.794Z,-3.28
2017-02-10T04:05:37.735Z,-3.24
2017-02-10T04:06:46.682Z,-3.23
2017-02-10T04:07:55.655Z,-3.27
2017-02-10T04:09:04.605Z,-3.25
2017-02-10T04:10:13.549Z,-3.25
2017-02-10T04:11:22.668Z,-3.17
2017-02-10T04:12:31.616Z,-3.23
2017-02-10T04:13:40.600Z,-3.3
2017-02-10T04:14:49.542Z,-3.2
2017-02-10T04:15:58.527Z,-3.23
2017-02-10T04:17:07.475Z,-3.23
2017-02-10T04:18:16.418Z,-3.14
2017-02-10T04:19:25.375Z,-3.12
2017-02-10T04:20:34.320Z,-3.12
2017-02-10T04:21:43.265Z,-3.14
2017-02-10T04:22:52.209Z,-3.1
2017-02-10T04:24:01.155Z,-3.05
2017-02-10T04:25:10.104Z,-3.07
2017-02-10T04:26:19.045Z,-3.12
2017-02-10T04:27:27.994Z,-3.14
2017-02-10T04:28:37.352Z,-3.02
2017-02-10T04:29:46.381Z,-2.97
2017-02-10T04:30:55.327Z,-3.07
2017-02-10T04:32:04.681Z,-3.1
2017-02-10T04:33:13.627Z,-3.12
2017-02-10T04:34:22.603Z,-3.12
2017-02-10T04:35:31.552Z,-3.09
2017-02-10T04:36:40.499Z,-3.07
2017-02-10T04:37:49.442Z,-3.07
2017-02-10T04:38:58.388Z,-3.14
2017-02-10T04:40:07.741Z,-3
2017-02-10T04:41:16.704Z,-3.1
2017-02-10T04:42:25.656Z,-3.09
2017-02-10T04:43:34.601Z,-3.1
2017-02-10T04:44:43.635Z,-3.1
2017-02-10T04:45:52.581Z,-3.2
2017-02-10T04:47:01.525Z,-3.23
2017-02-10T04:48:10.468Z,-3.12
2017-02-10T04:49:19.417Z,-3.14
2017-02-10T04:50:28.367Z,-3.14
2017-02-10T04:51:37.396Z,-3.14
2017-02-10T04:52:46.341Z,-3.07
2017-02-10T04:53:55.288Z,-3.03
2017-02-10T04:55:04.243Z,-3.1
2017-02-10T04:56:13.182Z,-3.06
2017-02-10T04:57:22.619Z,-3.1
2017-02-10T04:58:31.569Z,-3.14
2017-02-10T04:59:40.511Z,-3.15
2017-02-10T05:00:49.453Z,-3.12
2017-02-10T05:01:58.395Z,-3.15
2017-02-10T05:03:07.371Z,-3.14
2017-02-10T05:04:16.312Z,-3.14
2017-02-10T05:05:25.342Z,-3.15
2017-02-10T05:06:34.288Z,-3.15
2017-02-10T05:07:43.723Z,-3.1
2017-02-10T05:08:53.416Z,-3.23
2017-02-10T05:10:02.773Z,-3.21
2017-02-10T05:11:11.715Z,-3.3
2017-02-10T05:12:20.664Z,-3.33
2017-02-10T05:13:29.611Z,-3.31
2017-02-10T05:14:38.555Z,-3.36
2017-02-10T05:15:47.498Z,-3.39
2017-02-10T05:16:56.446Z,-3.3
2017-02-10T05:18:05.389Z,-3.38
2017-02-10T05:19:15.237Z,-3.33
2017-02-10T05:20:24.186Z,-3.38
2017-02-10T05:21:33.134Z,-3.36
2017-02-10T05:22:42.079Z,-3.38
2017-02-10T05:23:51.028Z,-3.35
2017-02-10T05:24:59.969Z,-3.42
2017-02-10T05:26:08.947Z,-3.31
2017-02-10T05:27:17.898Z,-3.35
2017-02-10T05:28:26.845Z,-3.31
2017-02-10T05:29:35.795Z,-3.35
2017-02-10T05:30:44.738Z,-3.31
2017-02-10T05:31:53.688Z,-3.31
2017-02-10T05:33:03.035Z,-3.36
2017-02-10T05:34:11.984Z,-3.36
2017-02-10T05:35:20.933Z,-3.3
2017-02-10T05:36:29.969Z,-3.39
2017-02-10T05:37:38.911Z,-3.36
2017-02-10T05:38:47.857Z,-3.38
2017-02-10T05:39:56.802Z,-3.39
2017-02-10T05:41:05.751Z,-3.25
2017-02-10T05:42:14.697Z,-3.38
2017-02-10T05:43:23.676Z,-3.3
2017-02-10T05:44:32.713Z,-3.31
2017-02-10T05:45:41.662Z,-3.28
2017-02-10T05:46:50.605Z,-3.36
2017-02-10T05:47:59.548Z,-3.28
2017-02-10T05:49:08.497Z,-3.28
2017-02-10T05:50:17.440Z,-3.3
2017-02-10T05:51:26.791Z,-3.2
2017-02-10T05:52:35.732Z,-3.24
2017-02-10T05:53:44.768Z,-3.18
2017-02-10T05:54:53.714Z,-3.21
2017-02-10T05:56:02.657Z,-3.25
2017-02-10T05:57:11.600Z,-3.24
2017-02-10T05:58:20.545Z,-3.17
2017-02-10T05:59:29.500Z,-3.23
2017-02-10T06:00:38.441Z,-3.3
2017-02-10T06:01:47.385Z,-3.21
2017-02-10T06:02:56.327Z,-3.18
2017-02-10T06:04:05.269Z,-3.18
2017-02-10T06:05:14.211Z,-3.24
2017-02-10T06:06:23.157Z,-3.24
2017-02-10T06:07:32.108Z,-3.23
2017-02-10T06:08:41.055Z,-3.21
2017-02-10T06:09:50.003Z,-3.17
2017-02-10T06:10:59.043Z,-3.14
2017-02-10T06:12:07.986Z,-3.12
2017-02-10T06:13:16.927Z,-3.1
2017-02-10T06:14:25.871Z,-3.09
2017-02-10T06:15:34.817Z,-3.12
2017-02-10T06:16:43.760Z,-3.23
2017-02-10T06:17:52.705Z,-3.36
2017-02-10T06:19:01.646Z,-3.28
2017-02-10T06:20:10.594Z,-3.21
2017-02-10T06:21:19.538Z,-3.21
2017-02-10T06:22:28.482Z,-3.28
2017-02-10T06:23:37.424Z,-3.28
2017-02-10T06:24:46.369Z,-3.27
2017-02-10T06:25:55.421Z,-3.25
2017-02-10T06:27:04.364Z,-3.36
2017-02-10T06:28:13.306Z,-3.33
2017-02-10T06:29:22.251Z,-3.41
2017-02-10T06:30:31.199Z,-3.49
2017-02-10T06:31:40.138Z,-3.52
2017-02-10T06:32:49.081Z,-3.48
2017-02-10T06:33:58.030Z,-3.38
2017-02-10T06:35:06.978Z,-3.42
2017-02-10T06:36:15.923Z,-3.52
2017-02-10T06:37:25.273Z,-3.56
2017-02-10T06:38:34.225Z,-3.6
2017-02-10T06:39:43.165Z,-3.49
2017-02-10T06:40:52.109Z,-3.54
2017-02-10T06:42:01.065Z,-3.57
2017-02-10T06:43:10.015Z,-3.53
2017-02-10T06:44:18.969Z,-3.52
2017-02-10T06:45:27.915Z,-3.54
2017-02-10T06:46:36.856Z,-3.53
2017-02-10T06:47:45.802Z,-3.53
2017-02-10T06:48:54.751Z,-3.53
2017-02-10T06:50:04.103Z,-3.41
2017-02-10T06:51:13.049Z,-3.35
2017-02-10T06:52:21.993Z,-3.3
2017-02-10T06:53:30.935Z,-3.39
2017-02-10T06:54:39.882Z,-3.39
2017-02-10T06:55:48.923Z,-3.35
2017-02-10T06:56:58.679Z,-3.31
2017-02-10T06:58:07.619Z,-3.33
2017-02-10T06:59:16.562Z,-3.35
2017-02-10T07:00:25.506Z,-3.33
2017-02-10T07:01:34.455Z,-3.35
2017-02-10T07:02:43.399Z,-3.35
2017-02-10T07:03:52.343Z,-3.33
2017-02-10T07:05:01.288Z,-3.36
2017-02-10T07:06:10.233Z,-3.35
2017-02-10T07:07:19.177Z,-3.35
2017-02-10T07:08:28.122Z,-3.38
2017-02-10T07:09:37.068Z,-3.38
2017-02-10T07:10:46.010Z,-3.36
2017-02-10T07:11:54.953Z,-3.35
2017-02-10T07:13:04.308Z,-3.38
2017-02-10T07:14:13.253Z,-3.28
2017-02-10T07:15:22.280Z,-3.31
2017-02-10T07:16:31.311Z,-3.25
2017-02-10T07:17:40.255Z,-3.24
2017-02-10T07:18:49.607Z,-3.14
2017-02-10T07:19:59.043Z,-3.18
2017-02-10T07:21:07.988Z,-3.2
2017-02-10T07:22:17.330Z,-3.2
2017-02-10T07:23:26.272Z,-3.12
2017-02-10T07:24:35.301Z,-3.02
2017-02-10T07:25:44.246Z,-3.03
2017-02-10T07:26:53.600Z,-2.97
2017-02-10T07:28:02.544Z,-3.06
2017-02-10T07:29:11.485Z,-2.91
2017-02-10T07:30:20.429Z,-2.94
2017-02-10T07:31:29.379Z,-2.97
2017-02-10T07:32:38.334Z,-3.02
2017-02-10T07:33:47.690Z,-2.97
2017-02-10T07:34:56.638Z,-2.99
2017-02-10T07:36:05.604Z,-2.85
2017-02-10T07:37:14.549Z,-2.86
2017-02-10T07:38:23.493Z,-2.96
2017-02-10T07:39:32.435Z,-2.97
2017-02-10T07:40:41.378Z,-3.03
2017-02-10T07:41:50.326Z,-2.96
2017-02-10T07:42:59.275Z,-3
2017-02-10T07:44:08.216Z,-2.91
2017-02-10T07:45:17.160Z,-2.77
2017-02-10T07:46:26.107Z,-2.74
2017-02-10T07:47:35.050Z,-2.78
2017-02-10T07:48:44.080Z,-2.67
2017-02-10T07:49:53.025Z,-2.71
2017-02-10T07:51:02.063Z,-2.77
2017-02-10T07:52:11.818Z,-2.81
2017-02-10T07:53:20.766Z,-2.78
2017-02-10T07:54:29.712Z,-2.77
2017-02-10T07:55:38.657Z,-2.71
2017-02-10T07:56:47.603Z,-2.63
2017-02-10T07:57:56.960Z,-2.67
2017-02-10T07:59:05.900Z,-2.78
2017-02-10T08:00:14.847Z,-2.74
2017-02-10T08:01:23.878Z,-2.68
2017-02-10T08:02:32.822Z,-2.71
2017-02-10T08:03:41.767Z,-2.71
2017-02-10T08:04:50.714Z,-2.63
2017-02-10T08:05:59.662Z,-2.58
2017-02-10T08:07:08.607Z,-2.64
2017-02-10T08:08:17.550Z,-2.63
2017-02-10T08:09:26.907Z,-2.66
2017-02-10T08:10:35.850Z,-2.73
2017-02-10T08:11:44.801Z,-2.68
2017-02-10T08:12:53.841Z,-2.58
2017-02-10T08:14:02.884Z,-2.61
2017-02-10T08:15:12.001Z,-2.49
2017-02-10T08:16:21.028Z,-2.49
2017-02-10T08:17:30.062Z,-2.5
2017-02-10T08:18:39.095Z,-2.37
2017-02-10T08:19:48.052Z,-2.48
2017-02-10T08:20:57.037Z,-2.46
2017-02-10T08:22:06.801Z,-2.45
2017-02-10T08:23:15.748Z,-2.35
2017-02-10T08:24:25.101Z,-2.48
2017-02-10T08:25:34.248Z,-2.49
2017-02-10T08:26:43.193Z,-2.43
2017-02-10T08:27:52.544Z,-2.53
2017-02-10T08:29:01.577Z,-2.45
2017-02-10T08:30:10.524Z,-2.48
2017-02-10T08:31:19.478Z,-2.4
2017-02-10T08:32:28.429Z,-2.55
2017-02-10T08:33:37.375Z,-2.52
2017-02-10T08:34:46.328Z,-2.5
2017-02-10T08:35:55.271Z,-2.56
2017-02-10T08:37:04.711Z,-2.55
2017-02-10T08:38:13.657Z,-2.5
2017-02-10T08:39:22.603Z,-2.52
2017-02-10T08:40:31.546Z,-2.4
2017-02-10T08:41:40.496Z,-2.43
2017-02-10T08:42:49.447Z,-2.39
2017-02-10T08:43:58.404Z,-2.34
2017-02-10T08:45:07.762Z,-2.39
2017-02-10T08:46:16.711Z,-2.35
2017-02-10T08:47:25.656Z,-2.37
2017-02-10T08:48:34.598Z,-2.3
2017-02-10T08:49:43.545Z,-2.34
2017-02-10T08:50:52.489Z,-2.23
2017-02-10T08:52:01.435Z,-2.26
2017-02-10T08:53:10.379Z,-2.24
2017-02-10T08:54:19.324Z,-2.23
2017-02-10T08:55:28.290Z,-2.21
2017-02-10T08:56:37.647Z,-2.15
2017-02-10T08:57:46.588Z,-2.06
2017-02-10T08:58:55.945Z,-2.03
2017-02-10T09:00:05.296Z,-2
2017-02-10T09:01:14.240Z,-1.92
2017-02-10T09:02:23.182Z,-1.92
2017-02-10T09:03:32.126Z,-1.91
2017-02-10T09:04:41.078Z,-1.92
2017-02-10T09:05:50.018Z,-1.9
2017-02-10T09:06:58.960Z,-1.88
2017-02-10T09:08:07.906Z,-1.84
2017-02-10T09:09:16.847Z,-1.82
2017-02-10T09:10:25.795Z,-1.82
2017-02-10T09:11:34.829Z,-1.76
2017-02-10T09:12:43.772Z,-1.8
2017-02-10T09:13:52.725Z,-1.73
2017-02-10T09:15:01.674Z,-1.76
2017-02-10T09:16:10.617Z,-1.82
2017-02-10T09:17:19.561Z,-1.82
2017-02-10T09:18:28.507Z,-1.87
2017-02-10T09:19:37.452Z,-1.76
2017-02-10T09:20:46.400Z,-1.7
2017-02-10T09:21:55.762Z,-1.73
2017-02-10T09:23:05.114Z,-1.69
2017-02-10T09:24:14.467Z,-1.58
2017-02-10T09:25:23.418Z,-1.58
2017-02-10T09:26:32.365Z,-1.58
2017-02-10T09:27:41.313Z,-1.61
2017-02-10T09:28:50.260Z,-1.59
2017-02-10T09:29:59.289Z,-1.51
2017-02-10T09:31:08.235Z,-1.56
2017-02-10T09:32:17.183Z,-1.55
2017-02-10T09:33:26.130Z,-1.43
2017-02-10T09:34:35.077Z,-1.55
2017-02-10T09:35:44.021Z,-1.58
2017-02-10T09:36:52.963Z,-1.55
2017-02-10T09:38:01.911Z,-1.61
2017-02-10T09:39:10.855Z,-1.59
2017-02-10T09:40:19.798Z,-1.58
2017-02-10T09:41:28.746Z,-1.59
2017-02-10T09:42:37.782Z,-1.55
2017-02-10T09:43:46.726Z,-1.59
2017-02-10T09:44:56.114Z,-1.52
2017-02-10T09:46:05.064Z,-1.58
2017-02-10T09:47:14.011Z,-1.52
2017-02-10T09:48:22.966Z,-1.52
2017-02-10T09:49:31.911Z,-1.41
2017-02-10T09:50:41.262Z,-1.41
2017-02-10T09:51:50.206Z,-1.4
2017-02-10T09:52:59.158Z,-1.37
2017-02-10T09:54:08.110Z,-1.37
2017-02-10T09:55:17.054Z,-1.3
2017-02-10T09:56:26.002Z,-1.28
2017-02-10T09:57:35.037Z,-1.16
2017-02-10T09:58:43.979Z,-1.16
2017-02-10T09:59:53.013Z,-1.16
2017-02-10T10:01:02.044Z,-1.13
2017-02-10T10:02:10.994Z,-1.09
2017-02-10T10:03:20.348Z,-1.04
2017-02-10T10:04:29.295Z,-0.98
2017-02-10T10:05:38.240Z,-1.05
2017-02-10T10:06:47.188Z,-1.15
2017-02-10T10:07:56.134Z,-1.15
2017-02-10T10:09:05.081Z,-1.09
2017-02-10T10:10:14.027Z,-1.02
2017-02-10T10:11:22.975Z,-1.02
2017-02-10T10:12:31.924Z,-0.99
2017-02-10T10:13:41.278Z,-0.98
2017-02-10T10:14:50.225Z,-1.01
2017-02-10T10:15:59.172Z,-1.16
2017-02-10T10:17:08.531Z,-1.04
2017-02-10T10:18:17.561Z,-1.02
2017-02-10T10:19:26.596Z,-0.99
2017-02-10T10:20:35.544Z,-1.01
2017-02-10T10:21:44.494Z,-1.04
2017-02-10T10:22:53.527Z,-0.98
2017-02-10T10:24:02.556Z,-1.01
2017-02-10T10:25:11.999Z,-0.91
2017-02-10T10:26:20.952Z,-0.86
2017-02-10T10:27:29.897Z,-0.86
2017-02-10T10:28:39.023Z,-0.86
2017-02-10T10:29:48.058Z,-0.97
2017-02-10T10:30:57.001Z,-1.01
2017-02-10T10:32:05.957Z,-0.97
2017-02-10T10:33:14.905Z,-0.95
2017-02-10T10:34:23.852Z,-0.86
2017-02-10T10:35:32.799Z,-0.98
2017-02-10T10:36:41.747Z,-0.98
2017-02-10T10:37:50.692Z,-0.83
2017-02-10T10:38:59.638Z,-1.01
2017-02-10T10:40:08.587Z,-0.86
2017-02-10T10:41:17.537Z,-0.8
2017-02-10T10:42:26.662Z,-0.82
2017-02-10T10:43:35.603Z,-0.76
2017-02-10T10:44:44.546Z,-0.78
2017-02-10T10:45:53.496Z,-0.73
2017-02-10T10:47:02.452Z,-0.73
2017-02-10T10:48:11.396Z,-0.76
2017-02-10T10:49:20.340Z,-0.72
2017-02-10T10:50:29.285Z,-0.75
2017-02-10T10:51:38.235Z,-0.65
2017-02-10T10:52:47.180Z,-0.75
2017-02-10T10:53:56.124Z,-0.61
2017-02-10T10:55:05.078Z,-0.61
2017-02-10T10:56:14.031Z,-0.52
2017-02-10T10:57:22.975Z,-0.55
2017-02-10T10:58:31.924Z,-0.52
2017-02-10T10:59:40.875Z,-0.46
2017-02-10T11:00:49.822Z,-0.46
2017-02-10T11:01:58.774Z,-0.42
2017-02-10T11:03:08.134Z,-0.4
2017-02-10T11:04:17.081Z,-0.42
2017-02-10T11:05:26.030Z,-0.44
2017-02-10T11:06:35.387Z,-0.43
2017-02-10T11:07:44.336Z,-0.46
2017-02-10T11:08:53.287Z,-0.43
2017-02-10T11:10:02.237Z,-0.42
2017-02-10T11:11:11.583Z,-0.36
2017-02-10T11:12:20.616Z,-0.39
2017-02-10T11:13:29.562Z,-0.37
2017-02-10T11:14:38.508Z,-0.36
2017-02-10T11:15:47.455Z,-0.33
2017-02-10T11:16:56.404Z,-0.39
2017-02-10T11:18:05.352Z,-0.26
2017-02-10T11:19:14.302Z,-0.28
2017-02-10T11:20:23.246Z,-0.22
2017-02-10T11:21:32.279Z,-0.26
2017-02-10T11:22:41.226Z,-0.18
2017-02-10T11:23:50.575Z,-0.15
2017-02-10T11:24:59.525Z,-0.25
2017-02-10T11:26:08.470Z,-0.25
2017-02-10T11:27:17.417Z,-0.25
2017-02-10T11:28:26.362Z,-0.22
2017-02-10T11:29:35.309Z,-0.19
2017-02-10T11:30:44.660Z,-0.08
2017-02-10T11:31:53.615Z,-0.05
2017-02-10T11:33:02.965Z,-0.05
2017-02-10T11:34:11.921Z,0
2017-02-10T11:35:20.866Z,-0.03
2017-02-10T11:36:29.816Z,-0.16
2017-02-10T11:37:38.776Z,-0.07
2017-02-10T11:38:47.724Z,-0.05
2017-02-10T11:39:56.672Z,0.04
2017-02-10T11:41:05.706Z,0.11
2017-02-10T11:42:15.063Z,0.14
2017-02-10T11:43:24.417Z,0.11
2017-02-10T11:44:33.359Z,0.07
2017-02-10T11:45:42.309Z,0.11
2017-02-10T11:46:51.253Z,0.03
2017-02-10T11:48:00.195Z,0.08
2017-02-10T11:49:09.150Z,0.11
2017-02-10T11:50:18.594Z,0.17
2017-02-10T11:51:27.544Z,0.23
2017-02-10T11:52:36.579Z,0.23
2017-02-10T11:53:45.526Z,0.36
2017-02-10T11:54:54.564Z,0.32
2017-02-10T11:56:03.507Z,0.32
2017-02-10T11:57:12.459Z,0.35
2017-02-10T11:58:21.408Z,0.32
2017-02-10T11:59:30.357Z,0.41
2017-02-10T12:00:39.304Z,0.5
2017-02-10T12:01:48.252Z,0.5
2017-02-10T12:02:57.197Z,0.57
2017-02-10T12:04:06.556Z,0.5
2017-02-10T12:05:15.592Z,0.53
2017-02-10T12:06:24.543Z,0.53
2017-02-10T12:07:33.498Z,0.58
2017-02-10T12:08:42.447Z,0.55
2017-02-10T12:09:51.394Z,0.57
2017-02-10T12:11:00.348Z,0.68
2017-02-10T12:12:09.294Z,0.72
2017-02-10T12:13:18.240Z,0.75
2017-02-10T12:14:27.273Z,0.73
2017-02-10T12:15:36.223Z,0.78
2017-02-10T12:16:45.167Z,0.72
2017-02-10T12:17:54.120Z,0.79
2017-02-10T12:19:03.068Z,0.73
2017-02-10T12:20:12.020Z,0.78
2017-02-10T12:21:21.056Z,0.79
2017-02-10T12:22:30.004Z,0.68
2017-02-10T12:23:38.953Z,0.72
2017-02-10T12:24:47.901Z,0.72
2017-02-10T12:25:56.845Z,0.72
2017-02-10T12:27:05.802Z,0.68
2017-02-10T12:28:14.748Z,0.73
2017-02-10T12:29:23.692Z,0.72
2017-02-10T12:30:32.638Z,0.84
2017-02-10T12:31:41.990Z,0.94
2017-02-10T12:32:50.939Z,0.93
2017-02-10T12:34:00.292Z,0.88
2017-02-10T12:35:09.239Z,0.98
2017-02-10T12:36:18.188Z,1
2017-02-10T12:37:27.139Z,0.98
2017-02-10T12:38:36.088Z,0.97
2017-02-10T12:39:45.444Z,0.9
2017-02-10T12:40:54.393Z,0.96
2017-02-10T12:42:03.342Z,0.9
2017-02-10T12:43:12.291Z,1.02
2017-02-10T12:44:21.238Z,0.91
2017-02-10T12:45:30.194Z,0.98
2017-02-10T12:46:39.143Z,1
2017-02-10T12:47:48.093Z,0.97
2017-02-10T12:48:57.535Z,1.05
2017-02-10T12:50:06.480Z,1.05
2017-02-10T12:51:15.428Z,1.14
2017-02-10T12:52:24.372Z,1.14
2017-02-10T12:53:33.317Z,1.2
2017-02-10T12:54:42.267Z,1.15
2017-02-10T12:55:51.224Z,1.12
2017-02-10T12:57:00.580Z,1.2
2017-02-10T12:58:09.534Z,1.26
2017-02-10T12:59:18.486Z,1.18
2017-02-10T13:00:27.433Z,1.22
2017-02-10T13:01:36.381Z,1.26
2017-02-10T13:02:45.330Z,1.3
2017-02-10T13:03:54.283Z,1.3
2017-02-10T13:05:03.232Z,1.33
2017-02-10T13:06:12.180Z,1.24
2017-02-10T13:07:21.127Z,1.32
2017-02-10T13:08:30.073Z,1.29
2017-02-10T13:09:39.025Z,1.37
2017-02-10T13:10:47.979Z,1.24
2017-02-10T13:11:56.922Z,1.33
2017-02-10T13:13:05.954Z,1.3
2017-02-10T13:14:14.895Z,1.33
2017-02-10T13:15:23.838Z,1.37
2017-02-10T13:16:32.873Z,1.4
2017-02-10T13:17:41.828Z,1.47
2017-02-10T13:18:50.775Z,1.5
2017-02-10T13:20:00.128Z,1.5
2017-02-10T13:21:09.077Z,1.59
2017-02-10T13:22:18.029Z,1.44
2017-02-10T13:23:26.980Z,1.58
2017-02-10T13:24:35.925Z,1.55
2017-02-10T13:25:44.874Z,1.54
2017-02-10T13:26:53.826Z,1.58
2017-02-10T13:28:02.778Z,1.6
2017-02-10T13:29:11.731Z,1.52
2017-02-10T13:30:20.680Z,1.47
2017-02-10T13:31:29.630Z,1.63
2017-02-10T13:32:38.681Z,1.55
2017-02-10T13:33:47.632Z,1.58
2017-02-10T13:34:56.579Z,1.59
2017-02-10T13:36:05.530Z,1.45
2017-02-10T13:37:14.483Z,1.55
2017-02-10T13:38:23.434Z,1.5
2017-02-10T13:39:32.386Z,1.55
2017-02-10T13:40:41.423Z,1.58
2017-02-10T13:41:50.374Z,1.6
2017-02-10T13:42:59.321Z,1.59
2017-02-10T13:44:08.276Z,1.65
2017-02-10T13:45:17.227Z,1.69
2017-02-10T13:46:26.175Z,1.68
2017-02-10T13:47:35.125Z,1.7
2017-02-10T13:48:44.074Z,1.69
2017-02-10T13:49:53.023Z,1.7
2017-02-10T13:51:01.972Z,1.76
2017-02-10T13:52:10.923Z,1.77
2017-02-10T13:53:19.873Z,1.8
2017-02-10T13:54:28.916Z,1.81
2017-02-10T13:55:37.864Z,1.8
2017-02-10T13:56:46.811Z,1.79
2017-02-10T13:57:55.938Z,1.76
2017-02-10T13:59:04.888Z,1.76
2017-02-10T14:00:13.835Z,1.77
2017-02-10T14:01:22.786Z,1.77
2017-02-10T14:02:31.733Z,1.72
2017-02-10T14:03:40.684Z,1.81
2017-02-10T14:04:49.637Z,1.81
2017-02-10T14:05:58.590Z,1.88
2017-02-10T14:07:07.541Z,1.86
2017-02-10T14:08:16.493Z,1.84
2017-02-10T14:09:25.851Z,1.84
2017-02-10T14:10:34.804Z,1.8
2017-02-10T14:11:43.759Z,1.81
2017-02-10T14:12:52.704Z,1.86
2017-02-10T14:14:01.656Z,1.86
2017-02-10T14:15:10.608Z,1.84
2017-02-10T14:16:20.086Z,1.81
2017-02-10T14:17:29.037Z,1.79
2017-02-10T14:18:37.983Z,1.79
2017-02-10T14:19:46.929Z,1.83
2017-02-10T14:20:55.878Z,1.84
2017-02-10T14:22:04.842Z,1.84
2017-02-10T14:23:13.792Z,1.88
2017-02-10T14:24:22.738Z,1.83
2017-02-10T14:25:31.692Z,1.95
2017-02-10T14:26:40.643Z,1.9
2017-02-10T14:27:49.589Z,1.88
2017-02-10T14:28:58.536Z,1.9
2017-02-10T14:30:07.486Z,1.88
2017-02-10T14:31:16.436Z,1.86
2017-02-10T14:32:25.796Z,1.87
2017-02-10T14:33:35.557Z,1.73
2017-02-10T14:34:44.536Z,1.77
2017-02-10T14:35:53.577Z,1.73
2017-02-10T14:37:02.531Z,1.68
2017-02-10T14:38:11.478Z,1.72
2017-02-10T14:39:20.425Z,1.66
2017-02-10T14:40:29.381Z,1.68
2017-02-10T14:41:38.417Z,1.6
2017-02-10T14:42:47.458Z,1.62
2017-02-10T14:43:56.422Z,1.66
2017-02-10T14:45:05.787Z,1.58
2017-02-10T14:46:14.736Z,1.65
2017-02-10T14:47:23.689Z,1.6
2017-02-10T14:48:32.651Z,1.54
2017-02-10T14:49:41.600Z,1.48
2017-02-10T14:50:50.548Z,1.41
2017-02-10T14:51:59.498Z,1.48
2017-02-10T14:53:08.853Z,1.59
2017-02-10T14:54:17.798Z,1.47
2017-02-10T14:55:26.835Z,1.48
2017-02-10T14:56:35.873Z,1.45
2017-02-10T14:57:45.233Z,1.48
2017-02-10T14:58:54.181Z,1.54